Terminal Aerodrome Forecast
Issued by NWS

Home | Current Version | Previous Version | Text Only | Print | Product List | Glossary On
Versions: 1 2 3 4 5 6 7 8 9 10 11 12
000
FTUS44 KTSA 230520
TAFRVS
TAF
KRVS 230520Z 2306/2406 17003KT P6SM SKC
     FM231400 27005KT P6SM VCSH BKN025 PROB30 2315/2321 4SM -TSRA
      BKN015CB
     FM232100 01012G20KT P6SM BKN035
     FM240100 02006KT P6SM BKN250=

USA.gov is the U.S. government's official web portal to all federal, state and local government web resources and services.